sensor_id;sensor_type;location;lat;lon;timestamp;pressure;altitude;pressure_sealevel;temperature;humidity
18813;BME280;9534;51.140;6.296;2022-10-16T00:00:33;100197.28;;;13.98;100.00
18813;BME280;9534;51.140;6.296;2022-10-16T00:05:15;100202.78;;;13.98;100.00
18813;BME280;9534;51.140;6.296;2022-10-16T00:09:55;100212.59;;;13.94;100.00
18813;BME280;9534;51.140;6.296;2022-10-16T00:14:35;100210.81;;;13.88;100.00
18813;BME280;9534;51.140;6.296;2022-10-16T00:19:16;100205.66;;;13.80;100.00
18813;BME280;9534;51.140;6.296;2022-10-16T00:23:58;100187.00;;;13.82;100.00
18813;BME280;9534;51.140;6.296;2022-10-16T00:28:39;100198.50;;;13.79;100.00
18813;BME280;9534;51.140;6.296;2022-10-16T00:33:20;100184.75;;;13.79;100.00
18813;BME280;9534;51.140;6.296;2022-10-16T00:38:00;100180.69;;;13.82;100.00
18813;BME280;9534;51.140;6.296;2022-10-16T00:42:42;100176.97;;;13.76;100.00
18813;BME280;9534;51.140;6.296;2022-10-16T00:47:26;100172.19;;;13.83;100.00
18813;BME280;9534;51.140;6.296;2022-10-16T00:52:07;100162.63;;;13.74;100.00
18813;BME280;9534;51.140;6.296;2022-10-16T00:56:49;100177.59;;;13.67;100.00
18813;BME280;9534;51.140;6.296;2022-10-16T01:01:31;100185.50;;;13.52;100.00
18813;BME280;9534;51.140;6.296;2022-10-16T01:06:25;100189.31;;;13.51;100.00
18813;BME280;9534;51.140;6.296;2022-10-16T01:11:15;100199.84;;;13.65;100.00
18813;BME280;9534;51.140;6.296;2022-10-16T01:16:03;100214.28;;;13.72;100.00
18813;BME280;9534;51.140;6.296;2022-10-16T01:20:51;100189.09;;;13.64;100.00
18813;BME280;9534;51.140;6.296;2022-10-16T01:25:45;100193.53;;;13.54;100.00
18813;BME280;9534;51.140;6.296;2022-10-16T01:30:32;100194.00;;;13.51;100.00
18813;BME280;9534;51.140;6.296;2022-10-16T01:41:23;100205.94;;;13.79;100.00
18813;BME280;9534;51.140;6.296;2022-10-16T01:46:07;100202.13;;;13.68;100.00
18813;BME280;9534;51.140;6.296;2022-10-16T01:50:54;100195.06;;;13.61;100.00
18813;BME280;9534;51.140;6.296;2022-10-16T01:55:39;100188.75;;;13.60;100.00
18813;BME280;9534;51.140;6.296;2022-10-16T02:00:24;100211.94;;;13.64;100.00
18813;BME280;9534;51.140;6.296;2022-10-16T02:05:12;100201.59;;;13.94;100.00
18813;BME280;9534;51.140;6.296;2022-10-16T02:09:54;100193.69;;;13.98;100.00
18813;BME280;9534;51.140;6.296;2022-10-16T02:14:37;100183.72;;;14.08;100.00
18813;BME280;9534;51.140;6.296;2022-10-16T02:19:18;100185.63;;;14.19;100.00
18813;BME280;9534;51.140;6.296;2022-10-16T02:24:05;100186.56;;;14.25;100.00
18813;BME280;9534;51.140;6.296;2022-10-16T02:28:53;100174.94;;;14.34;100.00
18813;BME280;9534;51.140;6.296;2022-10-16T02:33:36;100178.19;;;14.31;100.00
18813;BME280;9534;51.140;6.296;2022-10-16T02:38:17;100173.13;;;14.40;100.00
18813;BME280;9534;51.140;6.296;2022-10-16T02:42:59;100160.00;;;14.30;100.00
18813;BME280;9534;51.140;6.296;2022-10-16T02:47:39;100183.09;;;14.18;100.00
18813;BME280;9534;51.140;6.296;2022-10-16T02:52:20;100183.63;;;14.03;100.00
18813;BME280;9534;51.140;6.296;2022-10-16T02:57:00;100190.78;;;14.04;100.00
18813;BME280;9534;51.140;6.296;2022-10-16T03:01:42;100190.22;;;14.02;100.00
18813;BME280;9534;51.140;6.296;2022-10-16T03:06:22;100192.13;;;14.02;100.00
18813;BME280;9534;51.140;6.296;2022-10-16T03:11:02;100181.25;;;13.95;100.00
18813;BME280;9534;51.140;6.296;2022-10-16T03:15:43;100190.94;;;13.98;100.00
18813;BME280;9534;51.140;6.296;2022-10-16T03:20:25;100193.22;;;13.89;100.00
18813;BME280;9534;51.140;6.296;2022-10-16T03:25:06;100202.44;;;13.83;100.00
18813;BME280;9534;51.140;6.296;2022-10-16T03:29:47;100201.97;;;13.75;100.00
18813;BME280;9534;51.140;6.296;2022-10-16T03:34:28;100204.75;;;13.63;100.00
18813;BME280;9534;51.140;6.296;2022-10-16T03:39:09;100206.44;;;13.64;100.00
18813;BME280;9534;51.140;6.296;2022-10-16T03:43:50;100213.00;;;13.63;100.00
18813;BME280;9534;51.140;6.296;2022-10-16T03:48:30;100214.19;;;13.45;100.00
18813;BME280;9534;51.140;6.296;2022-10-16T03:53:11;100226.50;;;13.42;100.00
18813;BME280;9534;51.140;6.296;2022-10-16T03:57:52;100230.66;;;13.33;100.00
18813;BME280;9534;51.140;6.296;2022-10-16T04:02:33;100234.63;;;13.26;100.00
18813;BME280;9534;51.140;6.296;2022-10-16T04:07:13;100245.38;;;13.27;100.00
18813;BME280;9534;51.140;6.296;2022-10-16T04:11:53;100250.03;;;13.27;100.00
18813;BME280;9534;51.140;6.296;2022-10-16T04:16:35;100263.78;;;13.27;100.00
18813;BME280;9534;51.140;6.296;2022-10-16T04:21:16;100278.59;;;13.26;100.00
18813;BME280;9534;51.140;6.296;2022-10-16T04:25:56;100275.34;;;13.17;100.00
18813;BME280;9534;51.140;6.296;2022-10-16T04:30:38;100254.56;;;13.21;100.00
18813;BME280;9534;51.140;6.296;2022-10-16T04:35:20;100270.22;;;13.21;100.00
18813;BME280;9534;51.140;6.296;2022-10-16T04:40:01;100280.59;;;13.07;100.00
18813;BME280;9534;51.140;6.296;2022-10-16T04:44:41;100292.25;;;13.03;100.00
18813;BME280;9534;51.140;6.296;2022-10-16T04:49:21;100288.44;;;13.04;100.00
18813;BME280;9534;51.140;6.296;2022-10-16T04:54:03;100299.72;;;12.96;100.00
18813;BME280;9534;51.140;6.296;2022-10-16T04:58:43;100296.16;;;12.95;100.00
18813;BME280;9534;51.140;6.296;2022-10-16T05:03:23;100304.41;;;12.95;100.00
18813;BME280;9534;51.140;6.296;2022-10-16T05:08:03;100317.25;;;12.83;100.00
18813;BME280;9534;51.140;6.296;2022-10-16T05:12:45;100315.47;;;12.89;100.00
18813;BME280;9534;51.140;6.296;2022-10-16T05:17:26;100327.59;;;12.99;100.00
18813;BME280;9534;51.140;6.296;2022-10-16T05:22:06;100319.13;;;13.01;100.00
18813;BME280;9534;51.140;6.296;2022-10-16T05:26:47;100326.72;;;12.99;100.00
18813;BME280;9534;51.140;6.296;2022-10-16T05:31:28;100327.19;;;12.96;100.00
18813;BME280;9534;51.140;6.296;2022-10-16T05:36:09;100340.72;;;12.97;100.00
18813;BME280;9534;51.140;6.296;2022-10-16T05:40:51;100348.06;;;13.03;100.00
18813;BME280;9534;51.140;6.296;2022-10-16T05:45:31;100346.59;;;13.01;100.00
18813;BME280;9534;51.140;6.296;2022-10-16T05:50:13;100359.66;;;13.05;100.00
18813;BME280;9534;51.140;6.296;2022-10-16T05:54:53;100362.28;;;13.12;100.00
18813;BME280;9534;51.140;6.296;2022-10-16T05:59:33;100363.97;;;13.13;100.00
18813;BME280;9534;51.140;6.296;2022-10-16T06:04:14;100379.19;;;13.27;100.00
18813;BME280;9534;51.140;6.296;2022-10-16T06:08:56;100367.72;;;13.30;100.00
18813;BME280;9534;51.140;6.296;2022-10-16T06:13:38;100379.94;;;13.34;100.00
18813;BME280;9534;51.140;6.296;2022-10-16T06:18:20;100379.94;;;13.34;100.00
18813;BME280;9534;51.140;6.296;2022-10-16T06:23:00;100394.28;;;13.36;100.00
18813;BME280;9534;51.140;6.296;2022-10-16T06:27:42;100400.19;;;13.51;100.00
18813;BME280;9534;51.140;6.296;2022-10-16T06:32:22;100406.97;;;13.48;100.00
18813;BME280;9534;51.140;6.296;2022-10-16T06:37:02;100417.16;;;13.48;100.00
18813;BME280;9534;51.140;6.296;2022-10-16T06:41:42;100427.91;;;13.49;100.00
18813;BME280;9534;51.140;6.296;2022-10-16T06:46:25;100431.38;;;13.45;100.00
18813;BME280;9534;51.140;6.296;2022-10-16T06:51:09;100441.97;;;13.41;100.00
18813;BME280;9534;51.140;6.296;2022-10-16T06:55:49;100450.47;;;13.40;100.00
18813;BME280;9534;51.140;6.296;2022-10-16T07:00:29;100455.34;;;13.38;100.00
18813;BME280;9534;51.140;6.296;2022-10-16T07:05:11;100470.50;;;13.29;100.00
18813;BME280;9534;51.140;6.296;2022-10-16T07:09:51;100480.25;;;13.25;100.00
18813;BME280;9534;51.140;6.296;2022-10-16T07:14:32;100488.19;;;13.33;100.00
18813;BME280;9534;51.140;6.296;2022-10-16T07:19:13;100493.59;;;13.39;100.00
18813;BME280;9534;51.140;6.296;2022-10-16T07:23:57;100494.41;;;13.58;100.00
18813;BME280;9534;51.140;6.296;2022-10-16T07:28:38;100495.72;;;14.48;100.00
18813;BME280;9534;51.140;6.296;2022-10-16T07:33:19;100487.91;;;15.42;100.00
18813;BME280;9534;51.140;6.296;2022-10-16T07:37:59;100459.00;;;16.16;100.00
18813;BME280;9534;51.140;6.296;2022-10-16T07:42:40;100443.16;;;16.61;100.00
18813;BME280;9534;51.140;6.296;2022-10-16T07:47:20;100455.19;;;17.10;100.00
18813;BME280;9534;51.140;6.296;2022-10-16T07:52:00;100453.06;;;16.95;100.00
18813;BME280;9534;51.140;6.296;2022-10-16T07:56:41;100459.47;;;16.79;100.00
18813;BME280;9534;51.140;6.296;2022-10-16T08:01:23;100468.13;;;17.04;100.00
18813;BME280;9534;51.140;6.296;2022-10-16T08:06:04;100469.50;;;16.85;100.00
18813;BME280;9534;51.140;6.296;2022-10-16T08:10:45;100469.66;;;16.95;100.00
18813;BME280;9534;51.140;6.296;2022-10-16T08:15:25;100478.63;;;17.45;100.00
18813;BME280;9534;51.140;6.296;2022-10-16T08:20:08;100478.94;;;18.28;100.00
18813;BME280;9534;51.140;6.296;2022-10-16T08:24:48;100474.00;;;17.77;100.00
18813;BME280;9534;51.140;6.296;2022-10-16T08:29:29;100490.69;;;18.40;100.00
18813;BME280;9534;51.140;6.296;2022-10-16T08:34:09;100506.44;;;18.65;100.00
18813;BME280;9534;51.140;6.296;2022-10-16T08:38:51;100512.63;;;18.82;100.00
18813;BME280;9534;51.140;6.296;2022-10-16T08:43:42;100520.72;;;18.84;100.00
18813;BME280;9534;51.140;6.296;2022-10-16T08:48:29;100529.81;;;19.77;100.00
18813;BME280;9534;51.140;6.296;2022-10-16T08:53:15;100537.56;;;19.60;100.00
18813;BME280;9534;51.140;6.296;2022-10-16T08:57:58;100538.50;;;19.90;100.00
18813;BME280;9534;51.140;6.296;2022-10-16T09:02:44;100546.34;;;19.42;100.00
18813;BME280;9534;51.140;6.296;2022-10-16T09:07:33;100529.44;;;20.25;100.00
18813;BME280;9534;51.140;6.296;2022-10-16T09:12:22;100536.97;;;19.53;100.00
18813;BME280;9534;51.140;6.296;2022-10-16T09:17:16;100550.44;;;19.35;100.00
18813;BME280;9534;51.140;6.296;2022-10-16T09:22:04;100542.75;;;19.47;100.00
18813;BME280;9534;51.140;6.296;2022-10-16T09:26:50;100552.25;;;20.32;100.00
18813;BME280;9534;51.140;6.296;2022-10-16T09:31:31;100555.44;;;19.94;100.00
18813;BME280;9534;51.140;6.296;2022-10-16T09:36:13;100556.16;;;19.65;100.00
18813;BME280;9534;51.140;6.296;2022-10-16T09:40:54;100546.16;;;20.95;100.00
18813;BME280;9534;51.140;6.296;2022-10-16T09:45:40;100551.13;;;20.73;100.00
18813;BME280;9534;51.140;6.296;2022-10-16T09:50:23;100543.34;;;20.40;100.00
18813;BME280;9534;51.140;6.296;2022-10-16T09:55:14;100549.19;;;21.13;100.00
18813;BME280;9534;51.140;6.296;2022-10-16T09:59:56;100538.78;;;19.94;100.00
18813;BME280;9534;51.140;6.296;2022-10-16T10:04:38;100534.97;;;20.20;100.00
18813;BME280;9534;51.140;6.296;2022-10-16T10:09:21;100546.13;;;20.65;100.00
18813;BME280;9534;51.140;6.296;2022-10-16T10:14:13;100549.44;;;20.27;100.00
18813;BME280;9534;51.140;6.296;2022-10-16T10:18:58;100552.16;;;21.41;100.00
18813;BME280;9534;51.140;6.296;2022-10-16T10:23:39;100558.84;;;21.50;100.00
18813;BME280;9534;51.140;6.296;2022-10-16T10:28:50;100560.94;;;22.47;100.00
18813;BME280;9534;51.140;6.296;2022-10-16T10:33:42;100563.81;;;22.70;100.00
18813;BME280;9534;51.140;6.296;2022-10-16T10:38:37;100561.59;;;21.70;100.00
18813;BME280;9534;51.140;6.296;2022-10-16T10:43:29;100562.97;;;22.26;100.00
18813;BME280;9534;51.140;6.296;2022-10-16T10:48:21;100576.25;;;22.39;100.00
18813;BME280;9534;51.140;6.296;2022-10-16T10:53:21;100574.94;;;21.78;100.00
18813;BME280;9534;51.140;6.296;2022-10-16T10:58:23;100574.78;;;22.13;100.00
18813;BME280;9534;51.140;6.296;2022-10-16T11:03:36;100579.06;;;23.91;100.00
18813;BME280;9534;51.140;6.296;2022-10-16T11:08:25;100582.44;;;23.65;100.00
18813;BME280;9534;51.140;6.296;2022-10-16T11:13:14;100581.22;;;22.04;100.00
18813;BME280;9534;51.140;6.296;2022-10-16T11:18:01;100576.69;;;21.39;100.00
18813;BME280;9534;51.140;6.296;2022-10-16T11:22:48;100573.16;;;22.02;100.00
18813;BME280;9534;51.140;6.296;2022-10-16T11:27:36;100580.19;;;22.76;100.00
18813;BME280;9534;51.140;6.296;2022-10-16T11:32:22;100585.47;;;22.83;100.00
18813;BME280;9534;51.140;6.296;2022-10-16T11:37:08;100590.44;;;21.99;100.00
18813;BME280;9534;51.140;6.296;2022-10-16T11:41:51;100583.16;;;20.90;100.00
18813;BME280;9534;51.140;6.296;2022-10-16T11:46:36;100588.66;;;22.66;100.00
18813;BME280;9534;51.140;6.296;2022-10-16T11:51:40;100592.03;;;21.22;100.00
18813;BME280;9534;51.140;6.296;2022-10-16T11:56:22;100594.94;;;22.43;100.00
18813;BME280;9534;51.140;6.296;2022-10-16T12:01:15;100595.81;;;22.34;100.00
18813;BME280;9534;51.140;6.296;2022-10-16T12:06:11;100582.50;;;22.21;100.00
18813;BME280;9534;51.140;6.296;2022-10-16T12:10:52;100605.25;;;22.43;100.00
18813;BME280;9534;51.140;6.296;2022-10-16T12:15:34;100587.78;;;21.59;100.00
18813;BME280;9534;51.140;6.296;2022-10-16T12:20:34;100586.59;;;21.90;100.00
18813;BME280;9534;51.140;6.296;2022-10-16T12:25:23;100577.31;;;20.97;100.00
18813;BME280;9534;51.140;6.296;2022-10-16T12:30:06;100575.53;;;21.55;100.00
18813;BME280;9534;51.140;6.296;2022-10-16T12:34:47;100581.81;;;22.49;100.00
18813;BME280;9534;51.140;6.296;2022-10-16T12:39:29;100588.75;;;23.98;100.00
18813;BME280;9534;51.140;6.296;2022-10-16T12:44:23;100595.81;;;23.11;100.00
18813;BME280;9534;51.140;6.296;2022-10-16T12:49:22;100581.28;;;21.89;100.00
18813;BME280;9534;51.140;6.296;2022-10-16T12:54:13;100589.88;;;22.02;100.00
18813;BME280;9534;51.140;6.296;2022-10-16T12:59:04;100592.69;;;22.50;100.00
18813;BME280;9534;51.140;6.296;2022-10-16T13:04:14;100587.34;;;22.92;100.00
18813;BME280;9534;51.140;6.296;2022-10-16T13:09:14;100591.25;;;22.58;100.00
18813;BME280;9534;51.140;6.296;2022-10-16T13:14:07;100583.84;;;21.65;100.00
18813;BME280;9534;51.140;6.296;2022-10-16T13:19:03;100591.56;;;21.98;100.00
18813;BME280;9534;51.140;6.296;2022-10-16T13:23:53;100571.19;;;23.18;100.00
18813;BME280;9534;51.140;6.296;2022-10-16T13:28:37;100584.34;;;22.41;100.00
18813;BME280;9534;51.140;6.296;2022-10-16T13:33:20;100589.00;;;22.07;100.00
18813;BME280;9534;51.140;6.296;2022-10-16T13:38:11;100594.00;;;23.81;100.00
18813;BME280;9534;51.140;6.296;2022-10-16T13:42:52;100589.41;;;21.80;100.00
18813;BME280;9534;51.140;6.296;2022-10-16T13:47:33;100592.84;;;21.37;100.00
18813;BME280;9534;51.140;6.296;2022-10-16T13:52:17;100597.91;;;21.06;100.00
18813;BME280;9534;51.140;6.296;2022-10-16T13:57:05;100587.03;;;20.59;100.00
18813;BME280;9534;51.140;6.296;2022-10-16T14:02:14;100595.66;;;20.48;100.00
18813;BME280;9534;51.140;6.296;2022-10-16T14:06:57;100591.66;;;21.68;100.00
18813;BME280;9534;51.140;6.296;2022-10-16T14:11:44;100598.81;;;21.99;100.00
18813;BME280;9534;51.140;6.296;2022-10-16T14:16:29;100608.97;;;21.50;100.00
18813;BME280;9534;51.140;6.296;2022-10-16T14:21:13;100605.16;;;20.97;100.00
18813;BME280;9534;51.140;6.296;2022-10-16T14:26:05;100597.31;;;20.74;100.00
18813;BME280;9534;51.140;6.296;2022-10-16T14:30:50;100603.00;;;20.02;100.00
18813;BME280;9534;51.140;6.296;2022-10-16T14:35:34;100605.00;;;20.12;100.00
18813;BME280;9534;51.140;6.296;2022-10-16T14:40:24;100614.69;;;20.09;100.00
18813;BME280;9534;51.140;6.296;2022-10-16T14:45:08;100606.28;;;19.89;100.00
18813;BME280;9534;51.140;6.296;2022-10-16T14:49:51;100616.47;;;19.74;100.00
18813;BME280;9534;51.140;6.296;2022-10-16T14:54:33;100627.94;;;19.41;100.00
18813;BME280;9534;51.140;6.296;2022-10-16T14:59:17;100622.75;;;19.18;100.00
18813;BME280;9534;51.140;6.296;2022-10-16T15:03:59;100619.00;;;18.66;100.00
18813;BME280;9534;51.140;6.296;2022-10-16T15:08:39;100627.63;;;18.44;100.00
18813;BME280;9534;51.140;6.296;2022-10-16T15:13:21;100634.03;;;18.23;100.00
18813;BME280;9534;51.140;6.296;2022-10-16T15:18:02;100649.38;;;18.09;100.00
18813;BME280;9534;51.140;6.296;2022-10-16T15:22:42;100654.25;;;18.02;100.00
18813;BME280;9534;51.140;6.296;2022-10-16T15:27:22;100658.69;;;18.03;100.00
18813;BME280;9534;51.140;6.296;2022-10-16T15:32:04;100666.06;;;17.92;100.00
18813;BME280;9534;51.140;6.296;2022-10-16T15:36:45;100676.16;;;17.82;100.00
18813;BME280;9534;51.140;6.296;2022-10-16T15:41:25;100669.84;;;17.65;100.00
18813;BME280;9534;51.140;6.296;2022-10-16T15:46:08;100663.63;;;17.58;100.00
18813;BME280;9534;51.140;6.296;2022-10-16T15:50:54;100661.00;;;17.46;100.00
18813;BME280;9534;51.140;6.296;2022-10-16T15:55:35;100663.41;;;17.43;100.00
18813;BME280;9534;51.140;6.296;2022-10-16T16:00:18;100669.94;;;17.37;100.00
18813;BME280;9534;51.140;6.296;2022-10-16T16:04:59;100660.47;;;17.33;100.00
18813;BME280;9534;51.140;6.296;2022-10-16T16:09:41;100651.06;;;17.34;100.00
18813;BME280;9534;51.140;6.296;2022-10-16T16:14:22;100654.09;;;17.16;100.00
18813;BME280;9534;51.140;6.296;2022-10-16T16:19:05;100648.66;;;17.21;100.00
18813;BME280;9534;51.140;6.296;2022-10-16T16:23:49;100659.63;;;17.00;100.00
18813;BME280;9534;51.140;6.296;2022-10-16T16:28:30;100655.97;;;16.94;100.00
18813;BME280;9534;51.140;6.296;2022-10-16T16:33:11;100674.19;;;16.79;100.00
18813;BME280;9534;51.140;6.296;2022-10-16T16:37:51;100672.50;;;16.61;100.00
18813;BME280;9534;51.140;6.296;2022-10-16T16:42:31;100678.69;;;16.52;100.00
18813;BME280;9534;51.140;6.296;2022-10-16T16:47:13;100679.19;;;16.37;100.00
18813;BME280;9534;51.140;6.296;2022-10-16T16:51:53;100682.44;;;16.34;100.00
18813;BME280;9534;51.140;6.296;2022-10-16T16:56:34;100682.00;;;16.26;100.00
18813;BME280;9534;51.140;6.296;2022-10-16T17:01:15;100691.63;;;16.23;100.00
18813;BME280;9534;51.140;6.296;2022-10-16T17:06:02;100695.59;;;16.16;100.00
18813;BME280;9534;51.140;6.296;2022-10-16T17:10:43;100714.13;;;16.15;100.00
18813;BME280;9534;51.140;6.296;2022-10-16T17:15:25;100716.16;;;16.08;100.00
18813;BME280;9534;51.140;6.296;2022-10-16T17:20:06;100726.25;;;16.14;100.00
18813;BME280;9534;51.140;6.296;2022-10-16T17:24:49;100709.78;;;16.08;100.00
18813;BME280;9534;51.140;6.296;2022-10-16T17:29:30;100718.56;;;16.05;100.00
18813;BME280;9534;51.140;6.296;2022-10-16T17:34:10;100702.03;;;15.94;100.00
18813;BME280;9534;51.140;6.296;2022-10-16T17:38:51;100710.06;;;15.95;100.00
18813;BME280;9534;51.140;6.296;2022-10-16T17:43:33;100714.50;;;15.96;100.00
18813;BME280;9534;51.140;6.296;2022-10-16T17:48:13;100701.06;;;16.00;100.00
18813;BME280;9534;51.140;6.296;2022-10-16T17:52:53;100686.66;;;15.98;100.00
18813;BME280;9534;51.140;6.296;2022-10-16T17:57:33;100690.50;;;15.97;100.00
18813;BME280;9534;51.140;6.296;2022-10-16T18:02:14;100672.22;;;16.18;100.00
18813;BME280;9534;51.140;6.296;2022-10-16T18:06:56;100661.94;;;16.30;100.00
18813;BME280;9534;51.140;6.296;2022-10-16T18:11:38;100659.84;;;16.37;100.00
18813;BME280;9534;51.140;6.296;2022-10-16T18:16:19;100664.19;;;16.33;100.00
18813;BME280;9534;51.140;6.296;2022-10-16T18:21:02;100682.44;;;16.34;100.00
18813;BME280;9534;51.140;6.296;2022-10-16T18:25:48;100690.25;;;16.49;100.00
18813;BME280;9534;51.140;6.296;2022-10-16T18:30:28;100723.72;;;16.52;100.00
18813;BME280;9534;51.140;6.296;2022-10-16T18:35:09;100776.59;;;16.44;100.00
18813;BME280;9534;51.140;6.296;2022-10-16T18:39:52;100793.00;;;16.11;100.00
18813;BME280;9534;51.140;6.296;2022-10-16T18:44:32;100788.59;;;15.76;100.00
18813;BME280;9534;51.140;6.296;2022-10-16T18:49:13;100813.63;;;15.52;100.00
18813;BME280;9534;51.140;6.296;2022-10-16T18:53:56;100818.53;;;15.50;100.00
18813;BME280;9534;51.140;6.296;2022-10-16T18:58:40;100840.00;;;15.48;100.00
18813;BME280;9534;51.140;6.296;2022-10-16T19:03:21;100835.41;;;15.42;100.00
18813;BME280;9534;51.140;6.296;2022-10-16T19:08:01;100827.97;;;15.31;100.00
18813;BME280;9534;51.140;6.296;2022-10-16T19:12:42;100831.41;;;15.26;100.00
18813;BME280;9534;51.140;6.296;2022-10-16T19:17:23;100828.97;;;15.07;100.00
18813;BME280;9534;51.140;6.296;2022-10-16T19:22:04;100831.44;;;14.97;100.00
18813;BME280;9534;51.140;6.296;2022-10-16T19:26:52;100830.69;;;14.90;100.00
18813;BME280;9534;51.140;6.296;2022-10-16T19:31:32;100833.47;;;14.72;100.00
18813;BME280;9534;51.140;6.296;2022-10-16T19:36:16;100836.47;;;14.71;100.00
18813;BME280;9534;51.140;6.296;2022-10-16T19:41:03;100849.16;;;14.89;100.00
18813;BME280;9534;51.140;6.296;2022-10-16T19:45:44;100850.59;;;14.92;100.00
18813;BME280;9534;51.140;6.296;2022-10-16T19:50:24;100831.28;;;14.92;100.00
18813;BME280;9534;51.140;6.296;2022-10-16T19:55:07;100841.34;;;14.86;100.00
18813;BME280;9534;51.140;6.296;2022-10-16T19:59:50;100832.38;;;14.91;100.00
18813;BME280;9534;51.140;6.296;2022-10-16T20:04:31;100828.53;;;14.92;100.00
18813;BME280;9534;51.140;6.296;2022-10-16T20:09:12;100834.81;;;14.99;100.00
18813;BME280;9534;51.140;6.296;2022-10-16T20:13:53;100830.22;;;14.93;100.00
18813;BME280;9534;51.140;6.296;2022-10-16T20:18:34;100834.81;;;14.99;100.00
18813;BME280;9534;51.140;6.296;2022-10-16T20:23:15;100833.59;;;14.95;100.00
18813;BME280;9534;51.140;6.296;2022-10-16T20:27:55;100842.75;;;15.07;100.00
18813;BME280;9534;51.140;6.296;2022-10-16T20:32:37;100843.09;;;15.10;100.00
18813;BME280;9534;51.140;6.296;2022-10-16T20:37:19;100839.25;;;15.11;100.00
18813;BME280;9534;51.140;6.296;2022-10-16T20:42:00;100825.81;;;15.03;100.00
18813;BME280;9534;51.140;6.296;2022-10-16T20:46:40;100832.00;;;15.17;100.00
18813;BME280;9534;51.140;6.296;2022-10-16T20:51:23;100822.88;;;15.16;100.00
18813;BME280;9534;51.140;6.296;2022-10-16T20:56:05;100814.25;;;15.13;100.00
18813;BME280;9534;51.140;6.296;2022-10-16T21:00:46;100830.31;;;15.16;100.00
18813;BME280;9534;51.140;6.296;2022-10-16T21:05:27;100814.09;;;15.08;100.00
18813;BME280;9534;51.140;6.296;2022-10-16T21:10:11;100819.28;;;15.16;100.00
18813;BME280;9534;51.140;6.296;2022-10-16T21:14:51;100803.56;;;15.16;100.00
18813;BME280;9534;51.140;6.296;2022-10-16T21:19:51;100796.63;;;15.25;100.00
18813;BME280;9534;51.140;6.296;2022-10-16T21:24:31;100798.78;;;15.23;100.00
18813;BME280;9534;51.140;6.296;2022-10-16T21:29:13;100802.75;;;15.16;100.00
18813;BME280;9534;51.140;6.296;2022-10-16T21:33:54;100804.88;;;15.14;100.00
18813;BME280;9534;51.140;6.296;2022-10-16T21:38:35;100799.84;;;15.11;100.00
18813;BME280;9534;51.140;6.296;2022-10-16T21:43:15;100798.53;;;15.13;100.00
18813;BME280;9534;51.140;6.296;2022-10-16T21:47:57;100802.28;;;15.19;100.00
18813;BME280;9534;51.140;6.296;2022-10-16T21:52:37;100777.53;;;15.01;100.00
18813;BME280;9534;51.140;6.296;2022-10-16T21:57:18;100794.59;;;15.21;100.00
18813;BME280;9534;51.140;6.296;2022-10-16T22:01:58;100785.47;;;15.09;100.00
18813;BME280;9534;51.140;6.296;2022-10-16T22:06:42;100800.59;;;15.18;100.00
18813;BME280;9534;51.140;6.296;2022-10-16T22:11:24;100787.63;;;15.07;100.00
18813;BME280;9534;51.140;6.296;2022-10-16T22:16:06;100780.09;;;15.14;100.00
18813;BME280;9534;51.140;6.296;2022-10-16T22:20:46;100783.31;;;15.22;100.00
18813;BME280;9534;51.140;6.296;2022-10-16T22:25:28;100769.91;;;15.26;100.00
18813;BME280;9534;51.140;6.296;2022-10-16T22:30:09;100765.69;;;15.23;100.00
18813;BME280;9534;51.140;6.296;2022-10-16T22:34:50;100769.44;;;15.29;100.00
18813;BME280;9534;51.140;6.296;2022-10-16T22:39:31;100776.88;;;15.28;100.00
18813;BME280;9534;51.140;6.296;2022-10-16T22:44:13;100776.50;;;15.36;100.00
18813;BME280;9534;51.140;6.296;2022-10-16T22:48:54;100772.81;;;15.31;100.00
18813;BME280;9534;51.140;6.296;2022-10-16T22:53:34;100779.88;;;15.27;100.00
18813;BME280;9534;51.140;6.296;2022-10-16T22:58:15;100779.88;;;15.27;100.00
18813;BME280;9534;51.140;6.296;2022-10-16T23:02:56;100780.81;;;15.32;100.00
18813;BME280;9534;51.140;6.296;2022-10-16T23:07:37;100786.00;;;15.29;100.00
18813;BME280;9534;51.140;6.296;2022-10-16T23:12:18;100787.41;;;15.20;100.00
18813;BME280;9534;51.140;6.296;2022-10-16T23:16:59;100778.19;;;15.26;100.00
18813;BME280;9534;51.140;6.296;2022-10-16T23:21:41;100776.38;;;15.20;100.00
18813;BME280;9534;51.140;6.296;2022-10-16T23:26:23;100781.50;;;15.16;100.00
18813;BME280;9534;51.140;6.296;2022-10-16T23:31:04;100785.94;;;15.17;100.00
18813;BME280;9534;51.140;6.296;2022-10-16T23:35:45;100778.16;;;15.14;100.00
18813;BME280;9534;51.140;6.296;2022-10-16T23:40:26;100791.72;;;15.16;100.00
18813;BME280;9534;51.140;6.296;2022-10-16T23:45:07;100786.06;;;15.11;100.00
18813;BME280;9534;51.140;6.296;2022-10-16T23:49:48;100785.59;;;15.14;100.00
18813;BME280;9534;51.140;6.296;2022-10-16T23:54:28;100782.22;;;15.12;100.00
18813;BME280;9534;51.140;6.296;2022-10-16T23:59:10;100788.81;;;15.11;100.00
